Time;durP1;ratioP1;P1;durP2;ratioP2;P2;SDS_P1;SDS_P2;PMS_P1;PMS_P2;Temp;Humidity;BMP_temperature;BMP_pressure;BME280_temperature;BME280_humidity;BME280_pressure;Samples;Min_cycle;Max_cycle;Signal;HPM_P1;HPM_P2
2022/04/24 00:01:55;;;;;;;27.55;18.08;;;2.20;99.90;;;;;;5053848;28;20099;-74
2022/04/24 00:04:20;;;;;;;54.33;29.10;;;2.30;99.90;;;;;;5053497;28;20439;-75
2022/04/24 00:06:46;;;;;;;67.20;37.17;;;2.20;99.90;;;;;;5054739;28;20070;-75
2022/04/24 00:09:14;;;;;;;81.10;39.35;;;2.10;99.90;;;;;;5053304;28;20035;-75
2022/04/24 00:11:40;;;;;;;76.57;37.90;;;2.10;99.90;;;;;;5054643;28;20339;-75
2022/04/24 00:14:09;;;;;;;74.22;38.47;;;2.00;99.90;;;;;;5053402;28;20029;-74
2022/04/24 00:16:35;;;;;;;78.00;40.28;;;2.00;99.90;;;;;;5053102;28;20091;-75
2022/04/24 00:19:01;;;;;;;61.10;28.05;;;1.90;99.90;;;;;;5053203;28;20021;-76
2022/04/24 00:21:27;;;;;;;29.15;18.98;;;1.90;99.90;;;;;;5053283;28;20185;-74
2022/04/24 00:23:52;;;;;;;22.88;15.85;;;1.80;99.90;;;;;;5054509;28;20108;-74
2022/04/24 00:26:18;;;;;;;22.10;14.98;;;1.70;99.90;;;;;;5053108;28;20025;-74
2022/04/24 00:28:43;;;;;;;23.38;14.55;;;1.70;99.90;;;;;;5054368;28;20041;-74
2022/04/24 00:31:09;;;;;;;24.48;15.40;;;1.70;99.90;;;;;;5054271;28;20028;-75
2022/04/24 00:33:35;;;;;;;27.73;16.90;;;1.80;99.90;;;;;;5052980;28;20413;-75
2022/04/24 00:36:00;;;;;;;24.40;15.85;;;1.80;99.90;;;;;;5054167;28;20021;-74
2022/04/24 00:38:26;;;;;;;27.55;18.77;;;1.80;99.90;;;;;;5054224;28;20535;-75
2022/04/24 00:40:54;;;;;;;27.90;17.73;;;1.80;99.90;;;;;;5054080;28;20029;-75
2022/04/24 00:43:19;;;;;;;30.00;18.73;;;1.80;99.90;;;;;;5053095;28;20602;-75
2022/04/24 00:45:45;;;;;;;42.17;23.67;;;1.80;99.90;;;;;;5053873;28;20158;-74
2022/04/24 00:48:11;;;;;;;60.88;33.72;;;1.70;99.90;;;;;;5053957;28;20502;-75
2022/04/24 00:50:38;;;;;;;54.75;30.95;;;1.70;99.90;;;;;;5053758;28;20040;-74
2022/04/24 00:53:05;;;;;;;37.75;22.17;;;1.60;99.90;;;;;;5054003;28;20395;-75
2022/04/24 00:55:31;;;;;;;37.33;22.35;;;1.60;99.90;;;;;;5053755;28;20025;-74
2022/04/24 00:57:56;;;;;;;29.58;17.20;;;1.60;99.90;;;;;;5051843;28;20032;-75
2022/04/24 01:00:22;;;;;;;22.63;15.27;;;1.60;99.90;;;;;;5053614;28;20032;-75
2022/04/24 01:02:47;;;;;;;26.60;17.45;;;1.70;99.90;;;;;;5053593;28;20049;-75
2022/04/24 01:05:16;;;;;;;20.98;14.88;;;1.70;99.90;;;;;;5051983;28;20025;-74
2022/04/24 01:07:41;;;;;;;21.30;14.23;;;1.70;99.90;;;;;;5052083;28;20027;-75
2022/04/24 01:10:07;;;;;;;22.90;14.15;;;1.70;99.90;;;;;;5052007;28;20490;-75
2022/04/24 01:12:33;;;;;;;22.92;13.93;;;1.70;99.90;;;;;;5053281;28;20051;-75
2022/04/24 01:14:58;;;;;;;22.48;16.00;;;1.80;99.90;;;;;;5052620;28;20040;-75
2022/04/24 01:17:24;;;;;;;20.25;14.32;;;1.70;99.90;;;;;;5053176;28;20021;-75
2022/04/24 01:19:51;;;;;;;23.80;15.35;;;1.70;99.90;;;;;;5053146;28;20037;-75
2022/04/24 01:22:18;;;;;;;20.73;13.93;;;1.70;99.90;;;;;;5053206;28;20025;-74
2022/04/24 01:24:43;;;;;;;18.98;14.15;;;1.70;99.90;;;;;;5052902;28;20100;-76
2022/04/24 01:27:09;;;;;;;20.15;12.98;;;1.70;99.90;;;;;;5053055;28;20554;-74
2022/04/24 01:29:34;;;;;;;21.63;13.18;;;1.70;99.90;;;;;;5051681;28;20406;-75
2022/04/24 01:32:00;;;;;;;21.88;12.88;;;1.70;99.90;;;;;;5053096;28;20372;-76
2022/04/24 01:34:25;;;;;;;21.08;12.95;;;1.80;99.90;;;;;;5053033;28;20491;-75
2022/04/24 01:36:51;;;;;;;30.42;17.73;;;1.80;99.90;;;;;;5052835;28;20021;-75
2022/04/24 01:39:17;;;;;;;41.92;22.55;;;1.70;99.90;;;;;;5052821;28;20037;-75
2022/04/24 01:41:43;;;;;;;35.92;20.75;;;1.60;99.90;;;;;;5051677;28;20029;-75
2022/04/24 01:44:09;;;;;;;36.88;21.05;;;1.60;99.90;;;;;;5051706;28;20053;-75
2022/04/24 01:46:34;;;;;;;30.02;18.17;;;1.50;99.90;;;;;;5052623;28;20131;-74
2022/04/24 01:49:00;;;;;;;26.95;16.73;;;1.50;99.90;;;;;;5052725;28;20037;-74
2022/04/24 01:51:25;;;;;;;26.67;15.95;;;1.50;99.90;;;;;;5052668;28;20020;-74
2022/04/24 01:53:51;;;;;;;21.05;13.65;;;1.40;99.90;;;;;;5052856;28;20478;-74
2022/04/24 01:56:16;;;;;;;22.83;15.40;;;1.50;99.90;;;;;;5052534;28;20025;-74
2022/04/24 01:58:42;;;;;;;19.90;12.95;;;1.50;99.90;;;;;;5052925;28;20075;-76
2022/04/24 02:01:08;;;;;;;24.73;14.00;;;1.50;99.90;;;;;;5052920;28;20078;-73
2022/04/24 02:03:35;;;;;;;21.77;13.77;;;1.50;99.90;;;;;;5051815;28;20374;-76
2022/04/24 02:06:02;;;;;;;21.95;13.60;;;1.50;99.90;;;;;;5052761;28;20094;-73
2022/04/24 02:08:28;;;;;;;20.38;13.93;;;1.60;99.90;;;;;;5052930;28;20071;-75
2022/04/24 02:10:54;;;;;;;19.35;12.90;;;1.60;99.90;;;;;;5051473;28;20364;-75
2022/04/24 02:13:19;;;;;;;19.65;13.30;;;1.70;99.90;;;;;;5052804;28;20150;-75
2022/04/24 02:15:49;;;;;;;24.13;16.15;;;1.80;99.90;;;;;;5052581;28;20080;-74
2022/04/24 02:18:15;;;;;;;21.95;13.48;;;1.70;99.90;;;;;;5051442;28;20025;-74
2022/04/24 02:20:40;;;;;;;21.63;13.13;;;1.70;99.90;;;;;;5051257;28;20021;-74
2022/04/24 02:23:06;;;;;;;18.10;12.75;;;1.80;99.90;;;;;;5051485;28;20013;-75
2022/04/24 02:25:32;;;;;;;22.15;13.77;;;1.90;99.90;;;;;;5053593;28;20429;-74
2022/04/24 02:27:58;;;;;;;26.38;16.48;;;1.90;99.90;;;;;;5055290;28;20075;-75
2022/04/24 02:30:27;;;;;;;34.28;19.90;;;1.80;99.90;;;;;;5055159;28;20036;-75
2022/04/24 02:32:54;;;;;;;38.63;23.00;;;1.60;99.90;;;;;;5056684;28;20039;-74
2022/04/24 02:35:20;;;;;;;32.38;19.52;;;1.60;99.90;;;;;;5056495;28;20056;-75
2022/04/24 02:37:45;;;;;;;30.40;17.42;;;1.50;99.90;;;;;;5056530;28;20029;-74
2022/04/24 02:40:11;;;;;;;33.20;20.40;;;1.60;99.90;;;;;;5056255;28;20025;-75
2022/04/24 02:42:38;;;;;;;33.53;20.70;;;1.70;99.90;;;;;;5056377;28;20027;-75
2022/04/24 02:45:08;;;;;;;64.32;29.05;;;1.60;99.90;;;;;;5056503;28;20475;-75
2022/04/24 02:47:34;;;;;;;289.25;103.15;;;1.60;99.90;;;;;;5054992;28;20029;-75
2022/04/24 02:50:00;;;;;;;168.52;62.67;;;1.60;99.90;;;;;;5056089;28;20037;-75
2022/04/24 02:52:26;;;;;;;151.65;56.88;;;1.60;99.90;;;;;;5054943;28;20021;-74
2022/04/24 02:54:51;;;;;;;75.30;34.70;;;1.70;99.90;;;;;;5056224;28;20546;-75
2022/04/24 02:57:17;;;;;;;54.88;26.00;;;1.80;99.90;;;;;;5056063;28;20025;-75
2022/04/24 02:59:44;;;;;;;75.50;32.88;;;1.90;99.90;;;;;;5054820;28;20028;-75
2022/04/24 03:02:10;;;;;;;93.30;39.80;;;2.00;99.90;;;;;;5054655;28;20023;-76
2022/04/24 03:04:36;;;;;;;92.13;37.30;;;2.10;99.90;;;;;;5055995;28;20032;-74
2022/04/24 03:07:01;;;;;;;104.85;42.58;;;2.20;99.90;;;;;;5055941;28;20092;-75
2022/04/24 03:09:27;;;;;;;73.97;34.58;;;2.20;99.90;;;;;;5054214;28;20029;-75
2022/04/24 03:11:53;;;;;;;46.15;22.90;;;2.30;99.90;;;;;;5055832;28;20033;-76
2022/04/24 03:14:18;;;;;;;31.05;17.42;;;2.50;99.90;;;;;;5055686;28;20060;-76
2022/04/24 03:16:44;;;;;;;34.38;17.88;;;2.60;99.90;;;;;;5054591;28;20394;-75
2022/04/24 03:19:09;;;;;;;26.52;15.38;;;2.70;99.90;;;;;;5055931;28;20029;-75
2022/04/24 03:21:35;;;;;;;23.85;14.75;;;2.80;99.90;;;;;;5054354;28;20025;-74
2022/04/24 03:24:00;;;;;;;19.30;13.48;;;2.90;99.90;;;;;;5055660;28;20059;-74
2022/04/24 03:26:26;;;;;;;39.92;19.30;;;3.00;99.90;;;;;;5054382;28;20025;-74
2022/04/24 03:28:51;;;;;;;347.08;110.80;;;3.10;99.90;;;;;;5055431;28;20040;-75
2022/04/24 03:31:17;;;;;;;223.57;79.95;;;3.10;99.90;;;;;;5054150;28;20052;-74
2022/04/24 03:33:43;;;;;;;168.00;57.53;;;3.10;99.90;;;;;;5055472;28;20402;-76
2022/04/24 03:36:09;;;;;;;532.75;140.30;;;3.10;99.90;;;;;;5053872;28;20025;-75
2022/04/24 03:38:34;;;;;;;214.48;61.47;;;3.10;99.90;;;;;;5055426;28;20021;-75
2022/04/24 03:41:01;;;;;;;77.38;29.00;;;3.00;99.90;;;;;;5055351;28;20021;-75
2022/04/24 03:43:27;;;;;;;81.60;32.25;;;3.00;99.90;;;;;;5053966;28;20502;-74
2022/04/24 03:45:52;;;;;;;60.92;26.95;;;3.10;99.90;;;;;;5055133;28;20029;-76
2022/04/24 03:48:18;;;;;;;306.42;84.35;;;3.10;99.90;;;;;;5055006;28;20033;-75
2022/04/24 03:50:43;;;;;;;61.15;27.98;;;3.20;99.90;;;;;;5053631;28;20043;-75
2022/04/24 03:53:09;;;;;;;35.92;17.73;;;3.20;99.90;;;;;;5053833;28;20025;-75
2022/04/24 03:55:34;;;;;;;58.33;26.52;;;3.30;99.90;;;;;;5053618;28;20040;-75
2022/04/24 03:58:00;;;;;;;218.68;70.00;;;3.30;99.90;;;;;;5053654;28;20021;-75
2022/04/24 04:00:26;;;;;;;107.28;36.05;;;3.50;99.90;;;;;;5053543;28;20067;-74
2022/04/24 04:02:52;;;;;;;40.75;20.60;;;3.60;99.90;;;;;;5053731;28;20040;-75
2022/04/24 04:05:17;;;;;;;52.25;22.92;;;3.90;99.90;;;;;;5053524;28;20021;-75
2022/04/24 04:07:43;;;;;;;86.95;35.08;;;4.20;99.90;;;;;;5053584;28;20074;-75
2022/04/24 04:10:09;;;;;;;101.72;40.70;;;4.30;99.90;;;;;;5053309;28;20120;-76
2022/04/24 04:12:35;;;;;;;83.15;35.63;;;4.30;99.90;;;;;;5053379;28;20393;-76
2022/04/24 04:15:04;;;;;;;36.25;18.70;;;4.30;99.90;;;;;;5054310;28;20053;-74
2022/04/24 04:17:30;;;;;;;21.70;13.48;;;4.50;99.90;;;;;;5054500;28;20040;-75
2022/04/24 04:19:56;;;;;;;17.52;12.23;;;4.90;99.90;;;;;;5054547;28;20479;-75
2022/04/24 04:22:22;;;;;;;20.92;13.63;;;5.20;99.90;;;;;;5054543;28;20572;-75
2022/04/24 04:24:47;;;;;;;22.73;14.15;;;5.40;99.90;;;;;;5054524;28;20021;-75
2022/04/24 04:27:13;;;;;;;17.05;12.18;;;5.60;99.90;;;;;;5053464;28;20032;-75
2022/04/24 04:29:38;;;;;;;21.48;13.85;;;5.70;99.90;;;;;;5054252;28;20037;-75
2022/04/24 04:32:05;;;;;;;21.50;14.73;;;5.80;99.90;;;;;;5053088;28;20025;-75
2022/04/24 04:34:30;;;;;;;25.48;15.93;;;5.80;99.90;;;;;;5054496;28;20023;-76
2022/04/24 04:36:56;;;;;;;22.75;16.25;;;5.90;99.90;;;;;;5054286;28;20097;-74
2022/04/24 04:39:22;;;;;;;27.92;18.27;;;5.90;99.90;;;;;;5054272;28;20049;-75
2022/04/24 04:41:47;;;;;;;22.60;16.70;;;6.00;99.90;;;;;;5053032;28;20561;-75
2022/04/24 04:44:13;;;;;;;26.23;18.48;;;6.00;99.90;;;;;;5052957;28;20013;-75
2022/04/24 04:46:38;;;;;;;27.85;18.30;;;6.10;99.90;;;;;;5052809;28;20075;-75
2022/04/24 04:49:04;;;;;;;26.95;17.35;;;6.10;99.90;;;;;;5053518;28;20379;-75
2022/04/24 04:51:30;;;;;;;28.25;19.38;;;6.10;99.90;;;;;;5052742;28;20033;-76
2022/04/24 04:53:55;;;;;;;27.85;17.40;;;6.10;99.90;;;;;;5053898;28;20112;-76
2022/04/24 04:56:22;;;;;;;25.15;16.35;;;6.10;99.90;;;;;;5052567;28;20070;-76
2022/04/24 04:58:47;;;;;;;29.05;18.02;;;6.10;99.90;;;;;;5052571;28;20372;-76
2022/04/24 05:01:13;;;;;;;26.08;17.45;;;6.10;99.90;;;;;;5053685;28;20029;-75
2022/04/24 05:03:38;;;;;;;33.90;18.05;;;6.00;99.90;;;;;;5053675;28;20036;-76
2022/04/24 05:06:04;;;;;;;27.98;17.92;;;6.00;99.90;;;;;;5039713;28;20037;-76
2022/04/24 05:08:30;;;;;;;26.02;17.20;;;6.00;99.90;;;;;;5032567;28;20021;-76
2022/04/24 05:10:56;;;;;;;29.20;18.35;;;5.90;99.90;;;;;;5032452;28;20041;-75
2022/04/24 05:13:21;;;;;;;28.55;17.92;;;6.00;99.90;;;;;;5032236;28;20600;-76
2022/04/24 05:15:47;;;;;;;22.67;17.20;;;6.00;99.90;;;;;;5032230;28;20491;-75
2022/04/24 05:18:13;;;;;;;27.25;18.23;;;6.10;99.90;;;;;;5033636;28;20026;-76
2022/04/24 05:20:38;;;;;;;26.88;17.20;;;6.20;99.90;;;;;;5041929;28;20108;-76
2022/04/24 05:23:07;;;;;;;23.60;15.77;;;6.30;99.90;;;;;;5040649;28;20030;-76
2022/04/24 05:25:34;;;;;;;25.75;17.10;;;6.40;99.90;;;;;;5041914;28;20179;-76
2022/04/24 05:28:03;;;;;;;26.85;17.77;;;6.40;99.90;;;;;;5042062;28;20391;-76
2022/04/24 05:30:28;;;;;;;31.17;18.60;;;6.60;99.90;;;;;;5040359;28;20390;-76
2022/04/24 05:32:54;;;;;;;31.45;20.77;;;6.60;99.90;;;;;;5043050;28;20021;-76
2022/04/24 05:35:20;;;;;;;26.95;18.70;;;6.70;99.90;;;;;;5043253;28;20030;-76
2022/04/24 05:37:47;;;;;;;28.45;18.42;;;6.70;99.90;;;;;;5041021;28;20024;-76
2022/04/24 05:40:13;;;;;;;27.13;18.42;;;6.80;99.90;;;;;;5042344;28;20104;-75
2022/04/24 05:42:48;;;;;;;26.38;16.40;;;6.80;99.90;;;;;;5041705;28;20022;-76
2022/04/24 05:45:18;;;;;;;22.45;15.48;;;6.80;99.90;;;;;;5040251;28;20486;-76
2022/04/24 05:47:44;;;;;;;25.90;15.80;;;6.90;99.90;;;;;;5041687;28;20070;-75
2022/04/24 05:50:10;;;;;;;21.00;15.32;;;6.90;99.90;;;;;;5041835;28;20037;-75
2022/04/24 05:52:36;;;;;;;24.58;17.67;;;7.00;99.90;;;;;;5040267;28;20028;-76
2022/04/24 05:55:01;;;;;;;31.77;21.08;;;7.00;99.90;;;;;;5041911;28;20028;-75
2022/04/24 05:57:27;;;;;;;40.15;24.20;;;6.90;99.90;;;;;;5041466;28;20026;-75
2022/04/24 05:59:52;;;;;;;47.85;26.40;;;6.90;99.90;;;;;;5041541;28;20100;-76
2022/04/24 06:02:18;;;;;;;42.53;25.13;;;6.90;99.90;;;;;;5047484;28;20115;-75
2022/04/24 06:04:43;;;;;;;37.17;21.98;;;6.90;99.90;;;;;;5045069;28;20009;-75
2022/04/24 06:07:10;;;;;;;34.20;21.80;;;6.90;99.90;;;;;;5046229;28;20406;-75
2022/04/24 06:09:35;;;;;;;29.55;19.38;;;6.90;99.90;;;;;;5047473;28;20467;-75
2022/04/24 06:12:01;;;;;;;21.17;15.45;;;7.00;99.90;;;;;;5044564;28;20021;-75
2022/04/24 06:14:27;;;;;;;25.17;14.35;;;7.10;99.90;;;;;;5045115;28;20029;-75
2022/04/24 06:16:53;;;;;;;20.75;14.13;;;7.30;99.90;;;;;;5045846;28;20052;-76
2022/04/24 06:19:18;;;;;;;24.20;15.73;;;7.40;99.90;;;;;;5044992;28;20399;-76
2022/04/24 06:21:44;;;;;;;21.52;14.95;;;7.50;99.90;;;;;;5046616;28;20025;-76
2022/04/24 06:24:10;;;;;;;25.48;17.63;;;7.70;99.90;;;;;;5047065;28;20032;-76
2022/04/24 06:26:35;;;;;;;25.65;16.52;;;7.70;99.90;;;;;;5046283;28;20022;-75
2022/04/24 06:29:02;;;;;;;24.95;16.85;;;7.90;99.90;;;;;;5045286;28;20094;-75
2022/04/24 06:31:28;;;;;;;23.42;16.52;;;7.80;99.90;;;;;;5045008;28;20470;-76
2022/04/24 06:33:53;;;;;;;22.70;15.70;;;8.00;99.90;;;;;;5044949;28;20119;-75
2022/04/24 06:36:19;;;;;;;23.20;16.92;;;8.00;99.90;;;;;;5046537;28;20029;-76
2022/04/24 06:38:44;;;;;;;23.50;15.73;;;8.20;99.90;;;;;;5044813;28;20013;-75
2022/04/24 06:41:10;;;;;;;20.50;14.45;;;8.40;99.90;;;;;;5046467;28;20045;-75
2022/04/24 06:43:36;;;;;;;18.98;14.60;;;8.50;99.90;;;;;;5043808;28;20080;-74
2022/04/24 06:46:01;;;;;;;22.42;15.05;;;8.60;99.90;;;;;;5048322;28;20074;-74
2022/04/24 06:48:27;;;;;;;20.83;14.68;;;8.70;99.90;;;;;;5056222;28;20021;-74
2022/04/24 06:50:52;;;;;;;20.17;15.50;;;8.70;99.90;;;;;;5054844;28;20116;-74
2022/04/24 06:53:20;;;;;;;18.50;14.75;;;8.80;99.90;;;;;;5055988;28;20474;-75
2022/04/24 06:55:48;;;;;;;19.88;13.65;;;8.80;99.90;;;;;;5054569;28;20029;-74
2022/04/24 06:58:16;;;;;;;19.95;12.98;;;8.90;99.90;;;;;;5055953;28;20470;-75
2022/04/24 07:00:43;;;;;;;20.42;14.60;;;8.80;99.90;;;;;;5052772;28;20025;-74
2022/04/24 07:03:14;;;;;;;17.88;13.98;;;8.70;99.90;;;;;;5054827;28;20021;-74
2022/04/24 07:05:42;;;;;;;19.90;13.48;;;8.70;99.90;;;;;;5054275;28;20029;-74
2022/04/24 07:08:07;;;;;;;22.08;14.98;;;8.70;99.90;;;;;;5054185;28;20025;-75
2022/04/24 07:10:33;;;;;;;21.25;14.65;;;8.60;99.90;;;;;;5054105;28;20501;-74
2022/04/24 07:12:59;;;;;;;22.48;15.52;;;8.60;99.90;;;;;;5054863;28;20029;-76
2022/04/24 07:15:29;;;;;;;24.25;15.55;;;8.60;99.90;;;;;;5053868;28;20442;-75
2022/04/24 07:17:56;;;;;;;25.20;16.27;;;8.50;99.90;;;;;;5055459;28;20115;-75
2022/04/24 07:20:22;;;;;;;23.50;16.25;;;8.50;99.90;;;;;;5053879;28;20028;-75
2022/04/24 07:22:51;;;;;;;24.00;16.67;;;8.40;99.90;;;;;;5054082;28;20028;-76
2022/04/24 07:25:19;;;;;;;25.50;16.13;;;8.40;99.90;;;;;;5055194;28;20099;-75
2022/04/24 07:27:45;;;;;;;25.83;17.85;;;8.40;99.90;;;;;;5053936;28;20021;-75
2022/04/24 07:30:15;;;;;;;21.83;15.70;;;8.30;99.90;;;;;;5053635;28;20119;-75
2022/04/24 07:32:43;;;;;;;19.50;15.27;;;8.30;99.90;;;;;;5047086;28;20029;-76
2022/04/24 07:35:14;;;;;;;21.13;16.15;;;8.30;99.90;;;;;;5040582;28;20509;-75
2022/04/24 07:37:40;;;;;;;21.40;15.70;;;8.30;99.90;;;;;;5053776;28;20174;-75
2022/04/24 07:40:07;;;;;;;21.98;15.77;;;8.30;99.90;;;;;;5053422;28;20094;-75
2022/04/24 07:42:47;;;;;;;20.67;15.48;;;8.40;99.90;;;;;;5051612;28;20581;-76
2022/04/24 07:45:34;;;;;;;20.33;13.68;;;8.40;99.90;;;;;;5042942;28;20070;-75
2022/04/24 07:48:00;;;;;;;18.38;14.15;;;8.50;99.90;;;;;;5043956;28;20041;-75
2022/04/24 07:50:28;;;;;;;18.25;14.18;;;8.50;99.90;;;;;;5043065;28;20148;-75
2022/04/24 07:52:54;;;;;;;20.15;13.90;;;8.60;99.90;;;;;;5044572;28;20387;-76
2022/04/24 07:55:24;;;;;;;19.83;13.88;;;8.60;99.90;;;;;;5054713;28;20403;-76
2022/04/24 07:57:53;;;;;;;16.48;12.20;;;8.60;99.90;;;;;;5053469;28;20028;-75
2022/04/24 08:00:23;;;;;;;17.30;13.63;;;8.70;99.90;;;;;;5033292;28;20126;-75
2022/04/24 08:02:50;;;;;;;19.33;13.57;;;8.70;99.90;;;;;;5033346;28;20029;-74
2022/04/24 08:05:26;;;;;;;17.48;13.32;;;8.80;99.90;;;;;;5033171;28;20506;-74
2022/04/24 08:07:54;;;;;;;20.17;14.18;;;8.90;99.90;;;;;;5033493;28;20021;-75
2022/04/24 08:10:21;;;;;;;23.75;16.10;;;9.00;99.90;;;;;;5033009;28;20167;-74
2022/04/24 08:12:47;;;;;;;21.58;15.98;;;9.00;99.90;;;;;;5034533;28;20026;-74
2022/04/24 08:15:13;;;;;;;24.33;16.13;;;9.10;99.90;;;;;;5032832;28;20060;-76
2022/04/24 08:17:39;;;;;;;22.35;16.45;;;9.10;99.90;;;;;;5033271;28;20021;-76
2022/04/24 08:20:06;;;;;;;23.25;15.18;;;9.20;99.90;;;;;;5032924;28;20092;-74
2022/04/24 08:22:46;;;;;;;24.35;17.27;;;9.30;99.90;;;;;;5032638;28;20048;-75
2022/04/24 08:25:15;;;;;;;26.50;17.35;;;9.40;99.90;;;;;;5032671;28;20026;-76
2022/04/24 08:27:41;;;;;;;24.50;18.45;;;9.50;99.90;;;;;;5033014;28;20032;-76
2022/04/24 08:30:08;;;;;;;26.13;18.65;;;9.50;99.90;;;;;;5044291;28;20041;-76
2022/04/24 08:32:37;;;;;;;25.00;17.83;;;9.50;99.90;;;;;;5053178;28;20429;-75
2022/04/24 08:35:04;;;;;;;31.13;19.48;;;9.50;99.90;;;;;;5036229;28;20493;-76
2022/04/24 08:37:30;;;;;;;28.20;17.98;;;9.50;99.90;;;;;;5053237;28;20029;-76
2022/04/24 08:39:56;;;;;;;23.70;16.42;;;9.50;99.90;;;;;;5053083;28;20096;-77
2022/04/24 08:42:21;;;;;;;23.73;16.23;;;9.50;99.90;;;;;;5050863;28;20078;-76
2022/04/24 08:44:49;;;;;;;24.80;18.08;;;9.50;99.90;;;;;;5046363;28;20029;-77
2022/04/24 08:47:15;;;;;;;27.05;18.73;;;9.50;99.90;;;;;;5050864;28;20040;-76
2022/04/24 08:49:42;;;;;;;26.95;18.27;;;9.60;99.90;;;;;;5053046;28;20082;-76
2022/04/24 08:52:09;;;;;;;22.88;16.52;;;9.60;99.90;;;;;;5051032;28;20070;-75
2022/04/24 08:54:36;;;;;;;21.95;16.55;;;9.60;99.90;;;;;;5051580;28;20034;-75
2022/04/24 08:57:01;;;;;;;30.45;17.55;;;9.70;99.90;;;;;;5053021;28;20070;-76
2022/04/24 08:59:27;;;;;;;24.85;17.05;;;9.70;99.90;;;;;;5053644;28;20449;-77
2022/04/24 09:01:57;;;;;;;23.40;16.20;;;9.80;99.90;;;;;;5052097;28;20029;-76
2022/04/24 09:04:22;;;;;;;21.33;16.17;;;9.80;99.90;;;;;;5049558;28;20021;-75
2022/04/24 09:06:56;;;;;;;28.20;15.63;;;9.90;99.90;;;;;;5051679;28;20029;-75
2022/04/24 09:09:22;;;;;;;21.58;14.70;;;9.90;99.90;;;;;;5050687;28;20116;-76
2022/04/24 09:11:48;;;;;;;23.13;15.05;;;9.90;99.90;;;;;;5051067;28;20128;-76
2022/04/24 09:14:23;;;;;;;106.93;55.00;;;10.00;99.90;;;;;;5050482;28;20021;-77
2022/04/24 09:16:49;;;;;;;22.60;16.70;;;10.00;99.90;;;;;;5051456;28;20045;-76
2022/04/24 09:19:23;;;;;;;40.47;24.45;;;10.00;99.90;;;;;;5052137;28;20082;-76
2022/04/24 09:22:00;;;;;;;38.75;23.85;;;10.00;99.90;;;;;;5033476;28;20073;-76
2022/04/24 09:24:39;;;;;;;28.88;18.58;;;10.00;99.90;;;;;;5051335;28;20056;-76
2022/04/24 09:27:05;;;;;;;38.42;22.58;;;9.90;99.90;;;;;;5052466;28;20025;-77
2022/04/24 09:29:31;;;;;;;34.05;21.48;;;9.80;99.90;;;;;;5050430;28;20091;-76
2022/04/24 09:31:56;;;;;;;52.65;31.67;;;9.80;99.90;;;;;;5050761;28;20029;-76
2022/04/24 09:34:31;;;;;;;109.45;62.80;;;9.80;99.90;;;;;;5050941;28;20391;-76
2022/04/24 09:37:02;;;;;;;136.88;75.45;;;9.80;99.90;;;;;;5051617;28;20021;-77
2022/04/24 09:39:29;;;;;;;267.15;140.40;;;9.80;99.90;;;;;;5052635;28;20108;-76
2022/04/24 09:42:05;;;;;;;62.35;34.03;;;9.80;99.90;;;;;;5052341;28;20075;-76
2022/04/24 09:44:48;;;;;;;179.20;91.18;;;9.80;99.90;;;;;;5051691;28;20025;-76
2022/04/24 09:47:17;;;;;;;319.63;156.73;;;9.80;99.90;;;;;;5051460;28;20478;-77
2022/04/24 09:49:50;;;;;;;52.28;31.00;;;9.90;99.90;;;;;;5051647;28;20064;-76
2022/04/24 09:52:17;;;;;;;178.45;85.45;;;9.80;99.90;;;;;;5052713;28;20036;-76
2022/04/24 09:54:45;;;;;;;222.63;103.47;;;9.80;99.90;;;;;;5051495;28;20016;-77
2022/04/24 09:57:12;;;;;;;112.88;53.97;;;9.80;99.90;;;;;;5052701;28;20079;-77
2022/04/24 09:59:43;;;;;;;93.03;48.15;;;9.70;99.90;;;;;;5050396;28;20494;-76
2022/04/24 10:02:10;;;;;;;111.32;52.22;;;9.70;99.90;;;;;;5051270;28;20083;-76
2022/04/24 10:04:38;;;;;;;91.68;42.95;;;9.70;99.90;;;;;;5051443;28;20490;-77
2022/04/24 10:07:19;;;;;;;191.20;83.20;;;9.80;99.90;;;;;;5050667;28;20067;-76
2022/04/24 10:09:46;;;;;;;39.97;23.55;;;9.80;99.90;;;;;;5050175;28;20036;-77
2022/04/24 10:12:19;;;;;;;160.13;69.03;;;9.80;99.90;;;;;;5034686;28;20063;-77
2022/04/24 10:15:00;;;;;;;86.47;41.47;;;9.80;99.90;;;;;;5051153;28;20018;-76
2022/04/24 10:17:47;;;;;;;122.30;59.17;;;9.80;99.90;;;;;;5051420;28;20094;-76
2022/04/24 10:20:16;;;;;;;68.95;35.90;;;9.80;99.90;;;;;;5052669;28;20032;-76
2022/04/24 10:22:47;;;;;;;105.38;51.17;;;9.80;99.90;;;;;;5052351;28;20070;-77
2022/04/24 10:25:17;;;;;;;110.32;55.30;;;9.80;99.90;;;;;;5051188;28;20027;-78
2022/04/24 10:27:48;;;;;;;69.80;35.70;;;9.80;99.90;;;;;;5051266;28;20017;-76
2022/04/24 10:30:22;;;;;;;52.53;29.45;;;9.70;99.90;;;;;;5051227;28;20037;-77
2022/04/24 10:32:49;;;;;;;67.93;34.13;;;9.70;99.90;;;;;;5052476;28;20108;-76
2022/04/24 10:35:19;;;;;;;50.35;28.80;;;9.70;99.90;;;;;;5051114;28;20029;-76
2022/04/24 10:37:48;;;;;;;38.47;24.33;;;9.60;99.90;;;;;;5052547;28;20049;-76
2022/04/24 10:40:16;;;;;;;41.80;26.23;;;9.60;99.90;;;;;;5051136;28;20017;-76
2022/04/24 10:42:43;;;;;;;34.58;21.33;;;9.60;99.90;;;;;;5052267;28;20017;-76
2022/04/24 10:45:12;;;;;;;35.53;21.15;;;9.50;99.90;;;;;;5051030;28;20036;-77
2022/04/24 10:47:45;;;;;;;31.30;20.25;;;9.40;99.90;;;;;;5055203;28;20063;-76
2022/04/24 10:50:11;;;;;;;35.63;22.15;;;9.30;99.90;;;;;;5056270;28;20387;-77
2022/04/24 10:52:44;;;;;;;32.80;20.63;;;9.20;99.90;;;;;;5056165;28;20441;-77
2022/04/24 10:55:12;;;;;;;;;;;9.10;99.90;;;;;;5056476;28;20222;-76
2022/04/24 10:57:42;;;;;;;34.72;23.23;;;9.10;99.90;;;;;;5056111;28;19912;-76
2022/04/24 11:00:19;;;;;;;33.67;20.85;;;9.10;99.90;;;;;;5054781;28;20048;-77
2022/04/24 11:02:46;;;;;;;36.72;23.58;;;9.00;99.90;;;;;;5055776;28;20387;-77
2022/04/24 11:05:12;;;;;;;36.90;23.20;;;9.10;99.90;;;;;;5055669;28;20028;-76
2022/04/24 11:07:38;;;;;;;38.03;23.98;;;9.10;99.90;;;;;;5054627;28;20120;-77
2022/04/24 11:10:11;;;;;;;36.28;22.73;;;9.10;99.90;;;;;;5054577;28;20075;-76
2022/04/24 11:12:38;;;;;;;36.70;24.40;;;9.20;99.90;;;;;;5054313;28;20017;-76
2022/04/24 11:15:12;;;;;;;41.13;26.50;;;9.40;99.90;;;;;;5055465;28;20052;-78
2022/04/24 11:17:39;;;;;;;34.63;23.77;;;9.50;99.90;;;;;;5054491;28;20029;-77
2022/04/24 11:20:09;;;;;;;36.58;24.58;;;9.50;99.90;;;;;;5054353;28;20447;-76
2022/04/24 11:22:53;;;;;;;42.25;25.25;;;9.50;99.90;;;;;;5054463;28;20040;-77
2022/04/24 11:25:24;;;;;;;33.72;23.42;;;9.60;99.90;;;;;;5054076;28;20024;-76
2022/04/24 11:28:01;;;;;;;31.75;20.55;;;9.60;99.90;;;;;;5054329;28;20029;-76
2022/04/24 11:30:31;;;;;;;35.33;22.60;;;9.60;99.90;;;;;;5054082;28;20087;-76
2022/04/24 11:33:07;;;;;;;60.83;34.13;;;9.80;99.90;;;;;;5055193;28;20017;-76
2022/04/24 11:35:37;;;;;;;78.40;42.58;;;10.00;99.90;;;;;;5055374;28;20072;-76
2022/04/24 11:38:04;;;;;;;136.02;71.15;;;10.10;99.90;;;;;;5054118;28;20016;-77
2022/04/24 11:40:33;;;;;;;58.55;37.17;;;10.30;99.90;;;;;;5054002;28;20116;-76
2022/04/24 11:43:03;;;;;;;54.30;32.55;;;10.60;99.90;;;;;;5054807;28;20045;-77
2022/04/24 11:51:02;;;;;;;45.92;28.35;;;11.00;99.90;;;;;;5054902;28;20076;-78
2022/04/24 11:53:28;;;;;;;89.47;47.75;;;11.20;99.90;;;;;;5054046;28;20025;-77
2022/04/24 11:56:02;;;;;;;61.53;33.70;;;11.30;99.90;;;;;;5053920;28;20024;-78
2022/04/24 11:58:38;;;;;;;42.90;27.95;;;11.40;99.90;;;;;;5053954;28;20031;-76
2022/04/24 12:01:07;;;;;;;39.15;24.98;;;11.50;99.90;;;;;;5053776;28;20057;-79
2022/04/24 12:03:34;;;;;;;35.00;23.23;;;11.40;99.90;;;;;;5053808;28;20013;-77
2022/04/24 12:06:07;;;;;;;37.33;23.15;;;11.50;99.90;;;;;;5053651;28;20028;-77
2022/04/24 12:08:48;;;;;;;37.80;23.70;;;11.40;99.90;;;;;;5053745;28;20017;-77
2022/04/24 12:11:28;;;;;;;46.88;27.50;;;11.40;99.90;;;;;;5054957;28;20082;-77
2022/04/24 12:14:01;;;;;;;42.25;26.23;;;11.40;99.90;;;;;;5053732;28;20021;-78
2022/04/24 12:16:27;;;;;;;48.50;27.15;;;11.50;99.90;;;;;;5055068;28;20052;-77
2022/04/24 12:18:59;;;;;;;40.35;19.33;;;11.70;99.90;;;;;;5053673;28;20108;-78
2022/04/24 12:21:27;;;;;;;68.15;30.30;;;11.90;99.90;;;;;;5053625;28;20036;-78
2022/04/24 12:23:54;;;;;;;43.38;24.55;;;11.90;99.90;;;;;;5053573;28;20413;-77
2022/04/24 12:26:20;;;;;;;43.17;25.23;;;12.10;99.90;;;;;;5047320;28;20395;-77
2022/04/24 12:28:47;;;;;;;36.72;20.38;;;12.30;99.90;;;;;;5033306;28;20025;-78
2022/04/24 12:31:27;;;;;;;29.13;17.92;;;12.40;99.90;;;;;;5034048;28;20495;-77
2022/04/24 12:33:57;;;;;;;29.98;19.48;;;12.40;99.90;;;;;;5031989;28;20021;-76
2022/04/24 12:36:24;;;;;;;28.25;18.17;;;12.50;99.90;;;;;;5034615;28;20017;-77
2022/04/24 12:38:53;;;;;;;31.58;19.42;;;12.60;99.90;;;;;;5033258;28;20048;-77
2022/04/24 12:41:22;;;;;;;29.05;20.20;;;12.40;99.90;;;;;;5033245;28;20057;-78
2022/04/24 12:43:47;;;;;;;31.38;21.10;;;12.30;99.90;;;;;;5034690;28;20048;-77